Time;durP1;ratioP1;P1;durP2;ratioP2;P2;SDS_P1;SDS_P2;PMS_P1;PMS_P2;Temp;Humidity;BMP_temperature;BMP_pressure;BME280_temperature;BME280_humidity;BME280_pressure;Samples;Min_cycle;Max_cycle;Signal;HPM_P1;HPM_P2
2022/12/09 00:00:08;;;;;;;;;;;0.30;99.90;;;;;;12393943;28;20012;-84
2022/12/09 00:06:15;;;;;;;;;;;0.40;99.90;;;;;;12388668;28;19926;-84
2022/12/09 00:12:17;;;;;;;;;;;0.50;99.90;;;;;;12369043;28;19932;-84
2022/12/09 00:18:19;;;;;;;;;;;0.50;99.90;;;;;;12386066;28;19949;-84
2022/12/09 00:24:20;;;;;;;;;;;0.40;99.90;;;;;;12385811;28;20012;-85
2022/12/09 00:30:22;;;;;;;;;;;0.30;99.90;;;;;;12374693;28;19926;-84
2022/12/09 00:36:25;;;;;;;;;;;0.30;99.90;;;;;;12385451;28;20012;-85
2022/12/09 00:42:26;;;;;;;;;;;0.20;99.90;;;;;;12396046;28;20246;-84
2022/12/09 00:48:28;;;;;;;;;;;0.20;99.90;;;;;;12404168;28;19956;-84
2022/12/09 00:54:30;;;;;;;;;;;0.20;99.90;;;;;;12374494;28;19929;-85
2022/12/09 01:00:32;;;;;;;;;;;0.40;99.90;;;;;;12390200;28;20061;-84
2022/12/09 01:06:34;;;;;;;;;;;0.30;99.90;;;;;;12375179;28;19968;-84
2022/12/09 01:12:37;;;;;;;;;;;0.30;99.90;;;;;;12397819;28;20301;-84
2022/12/09 01:18:39;;;;;;;;;;;0.20;99.90;;;;;;12402611;28;19930;-85
2022/12/09 01:24:41;;;;;;;;;;;0.20;99.90;;;;;;12378994;28;20420;-84
2022/12/09 01:30:43;;;;;;;;;;;0.20;99.90;;;;;;12394367;28;19937;-85
2022/12/09 01:36:47;;;;;;;;;;;0.30;99.90;;;;;;12372896;28;19930;-84
2022/12/09 01:42:49;;;;;;;;;;;0.30;99.90;;;;;;12381097;28;19968;-85
2022/12/09 01:48:51;;;;;;;;;;;0.40;99.90;;;;;;12402635;28;19933;-84
2022/12/09 01:54:53;;;;;;;;;;;0.40;99.90;;;;;;12366027;28;20332;-84
2022/12/09 02:00:55;;;;;;;;;;;0.30;99.90;;;;;;12395324;28;19926;-84
2022/12/09 02:06:58;;;;;;;;;;;0.30;99.90;;;;;;12379889;28;20019;-84
2022/12/09 02:13:06;;;;;;;;;;;0.30;99.90;;;;;;12362505;28;20305;-85
2022/12/09 02:19:26;;;;;;;;;;;0.30;99.90;;;;;;12400739;28;19926;-84
2022/12/09 02:25:28;;;;;;;;;;;0.30;99.90;;;;;;12367868;28;20326;-84
2022/12/09 02:31:39;;;;;;;;;;;0.20;99.90;;;;;;12385104;28;20020;-85
2022/12/09 02:37:45;;;;;;;;;;;0.40;99.90;;;;;;12399376;28;19933;-84
2022/12/09 02:43:50;;;;;;;;;;;0.30;99.90;;;;;;12380841;28;20382;-85
2022/12/09 02:49:55;;;;;;;;;;;0.40;99.90;;;;;;12384118;28;19934;-85
2022/12/09 02:55:58;;;;;;;;;;;0.40;99.90;;;;;;12370091;28;19932;-84
2022/12/09 03:02:00;;;;;;;;;;;0.40;99.90;;;;;;12387095;28;19937;-85
2022/12/09 03:08:12;;;;;;;;;;;0.30;99.90;;;;;;12375537;28;19934;-85
2022/12/09 03:14:30;;;;;;;;;;;0.40;99.90;;;;;;12372818;28;19926;-85
2022/12/09 03:20:33;;;;;;;;;;;0.40;99.90;;;;;;12373779;28;19926;-85
2022/12/09 03:26:36;;;;;;;;;;;0.30;99.90;;;;;;12387822;28;20374;-85
2022/12/09 03:32:40;;;;;;;;;;;0.10;99.90;;;;;;12379064;28;19941;-85
2022/12/09 03:38:43;;;;;;;;;;;0.00;99.90;;;;;;12375424;28;19929;-85
2022/12/09 03:44:50;;;;;;;;;;;0.30;99.90;;;;;;12372162;28;20060;-85
2022/12/09 03:51:18;;;;;;;;;;;0.30;99.90;;;;;;12378674;28;19930;-85
2022/12/09 03:57:21;;;;;;;;;;;0.20;99.90;;;;;;12361591;28;19995;-85
2022/12/09 04:03:23;;;;;;;;;;;0.20;99.90;;;;;;12370630;28;20004;-85
2022/12/09 04:09:25;;;;;;;;;;;0.20;99.90;;;;;;12388103;28;20389;-85
2022/12/09 04:15:27;;;;;;;;;;;0.20;99.90;;;;;;12378395;28;20302;-85
2022/12/09 04:21:28;;;;;;;;;;;0.20;99.90;;;;;;12388725;28;19930;-85
2022/12/09 04:27:30;;;;;;;;;;;0.30;99.90;;;;;;12375663;28;19930;-85
2022/12/09 04:33:32;;;;;;;;;;;0.30;99.90;;;;;;12375983;28;19941;-85
2022/12/09 04:39:34;;;;;;;;;;;0.50;99.90;;;;;;12384411;28;19992;-85
2022/12/09 04:45:36;;;;;;;;;;;0.50;99.90;;;;;;12384051;28;19933;-85
2022/12/09 04:51:38;;;;;;;;;;;0.40;99.90;;;;;;12377997;28;19933;-85
2022/12/09 04:57:41;;;;;;;;;;;0.40;99.90;;;;;;12369633;28;19926;-85
2022/12/09 05:03:46;;;;;;;;;;;0.30;99.90;;;;;;12391347;28;19940;-85
2022/12/09 05:09:48;;;;;;;;;;;0.30;99.90;;;;;;12389150;28;19967;-85
2022/12/09 05:15:50;;;;;;;;;;;0.20;99.90;;;;;;12388165;28;19926;-85
2022/12/09 05:21:52;;;;;;;;;;;0.10;99.90;;;;;;12386343;28;19926;-85
2022/12/09 05:27:54;;;;;;;;;;;0.30;99.90;;;;;;12366654;28;19926;-85
2022/12/09 05:33:56;;;;;;;;;;;0.30;99.90;;;;;;12375819;28;19937;-85
2022/12/09 05:39:59;;;;;;;;;;;0.20;99.90;;;;;;12379044;28;20377;-85
2022/12/09 05:46:01;;;;;;;;;;;0.30;99.90;;;;;;12375210;28;20020;-85
2022/12/09 05:52:04;;;;;;;;;;;0.40;99.90;;;;;;12373593;28;19929;-85
2022/12/09 05:58:06;;;;;;;;;;;0.50;99.90;;;;;;12362309;28;19926;-85
2022/12/09 06:04:08;;;;;;;;;;;0.50;99.90;;;;;;12363242;28;19932;-85
2022/12/09 06:10:10;;;;;;;;;;;0.60;99.90;;;;;;12361472;28;19934;-85
2022/12/09 06:16:13;;;;;;;;;;;0.60;99.90;;;;;;12371425;28;19934;-85
2022/12/09 06:22:15;;;;;;;;;;;0.70;99.90;;;;;;12358714;28;19976;-85
2022/12/09 06:28:18;;;;;;;;;;;0.70;99.90;;;;;;12344736;28;19926;-85
2022/12/09 06:34:20;;;;;;;;;;;0.70;99.90;;;;;;12377952;28;19934;-85
2022/12/09 06:40:22;;;;;;;;;;;0.70;99.90;;;;;;12391397;28;20012;-85
2022/12/09 06:46:25;;;;;;;;;;;0.70;99.90;;;;;;12380487;28;20286;-85
2022/12/09 06:52:28;;;;;;;;;;;0.70;99.90;;;;;;12380367;28;19933;-85
2022/12/09 06:58:30;;;;;;;;;;;0.70;99.90;;;;;;12370561;28;19934;-86
2022/12/09 07:04:32;;;;;;;;;;;0.70;99.90;;;;;;12379882;28;20374;-85
2022/12/09 07:10:34;;;;;;;;;;;0.70;99.90;;;;;;12388908;28;19930;-85
2022/12/09 07:16:36;;;;;;;;;;;0.70;99.90;;;;;;12377926;28;19930;-85
2022/12/09 07:22:38;;;;;;;;;;;0.80;99.90;;;;;;12385161;28;19934;-86
2022/12/09 07:28:41;;;;;;;;;;;0.70;99.90;;;;;;12380011;28;20349;-85
2022/12/09 07:34:44;;;;;;;;;;;0.60;99.90;;;;;;12376939;28;19936;-86
2022/12/09 07:40:46;;;;;;;;;;;0.60;99.90;;;;;;12387479;28;19926;-86
2022/12/09 07:46:48;;;;;;;;;;;0.60;99.90;;;;;;12386243;28;20281;-86
2022/12/09 07:52:50;;;;;;;;;;;0.60;99.90;;;;;;12399526;28;19926;-86
2022/12/09 07:58:53;;;;;;;;;;;0.60;99.90;;;;;;12391467;28;19926;-85
2022/12/09 08:04:55;;;;;;;;;;;0.60;99.90;;;;;;12388913;28;19926;-86
2022/12/09 08:11:07;;;;;;;;;;;0.70;99.90;;;;;;12377743;28;19956;-85
2022/12/09 08:17:09;;;;;;;;;;;0.60;99.90;;;;;;12381897;28;19926;-85
2022/12/09 08:23:11;;;;;;;;;;;0.70;99.90;;;;;;12389270;28;20278;-86
2022/12/09 08:29:12;;;;;;;;;;;0.80;99.90;;;;;;12373374;28;20382;-85
2022/12/09 08:35:15;;;;;;;;;;;0.80;99.90;;;;;;12380892;28;19937;-85
2022/12/09 08:41:41;;;;;;;;;;;0.70;99.90;;;;;;12384630;28;19926;-85
2022/12/09 08:47:43;;;;;;;;;;;0.80;99.90;;;;;;12371780;28;19940;-85
2022/12/09 08:53:45;;;;;;;;;;;0.80;99.90;;;;;;12371000;28;20084;-85
2022/12/09 08:59:47;;;;;;;;;;;0.80;99.90;;;;;;12364724;28;19926;-85
2022/12/09 09:05:49;;;;;;;;;;;0.70;99.90;;;;;;12372998;28;19932;-85
2022/12/09 09:11:52;;;;;;;;;;;0.90;99.90;;;;;;12388544;28;19926;-85
2022/12/09 09:17:53;;;;;;;;;;;1.00;99.90;;;;;;12379351;28;19934;-85
2022/12/09 09:23:56;;;;;;;;;;;1.10;99.90;;;;;;12375602;28;19925;-86
2022/12/09 09:29:58;;;;;;;;;;;1.10;99.90;;;;;;12386823;28;20064;-86
2022/12/09 09:36:02;;;;;;;;;;;1.30;99.90;;;;;;12380143;28;19933;-85
2022/12/09 09:42:13;;;;;;;;;;;1.00;99.90;;;;;;12372822;28;19925;-86
2022/12/09 09:48:17;;;;;;;;;;;1.00;99.90;;;;;;12379988;28;19926;-86
2022/12/09 09:54:19;;;;;;;;;;;1.10;99.90;;;;;;12382783;28;19932;-85
2022/12/09 10:00:47;;;;;;;;;;;1.30;99.90;;;;;;12377290;28;19926;-86
2022/12/09 10:06:54;;;;;;;;;;;1.20;99.90;;;;;;12366623;28;19926;-85
2022/12/09 10:13:19;;;;;;;;;;;1.40;99.90;;;;;;12370807;28;19926;-86
2022/12/09 10:19:21;;;;;;;;;;;1.60;99.90;;;;;;12380043;28;19956;-85
2022/12/09 10:25:25;;;;;;;;;;;1.40;99.90;;;;;;12376473;28;19969;-85
2022/12/09 10:31:27;;;;;;;;;;;1.40;99.90;;;;;;12362674;28;19933;-85
2022/12/09 10:37:29;;;;;;;;;;;1.50;99.90;;;;;;12383275;28;19977;-85
2022/12/09 10:43:36;;;;;;;;;;;1.50;99.90;;;;;;12382720;28;19933;-84
2022/12/09 10:49:41;;;;;;;;;;;1.70;99.90;;;;;;12393660;28;20481;-85
2022/12/09 10:55:48;;;;;;;;;;;2.10;99.90;;;;;;12358726;28;19957;-84
2022/12/09 11:01:57;;;;;;;;;;;2.90;99.90;;;;;;12371136;28;19926;-84
2022/12/09 11:08:00;;;;;;;;;;;3.00;99.90;;;;;;12380257;28;19934;-84
2022/12/09 11:14:03;;;;;;;;;;;3.00;99.90;;;;;;12373079;28;20009;-84
2022/12/09 11:20:05;;;;;;;;;;;2.50;99.90;;;;;;12380896;28;19945;-84
2022/12/09 11:26:21;;;;;;;;;;;2.50;99.90;;;;;;12382927;28;19940;-84
2022/12/09 11:32:23;;;;;;;;;;;2.80;99.90;;;;;;12377587;28;19929;-84
2022/12/09 11:38:30;;;;;;;;;;;2.90;99.90;;;;;;12399643;28;19925;-84
2022/12/09 11:44:32;;;;;;;;;;;2.90;99.90;;;;;;12377587;28;19989;-85
2022/12/09 11:50:36;;;;;;;;;;;2.50;99.90;;;;;;12381858;28;19930;-84
2022/12/09 11:56:38;;;;;;;;;;;2.50;99.90;;;;;;12372221;28;19926;-84
2022/12/09 12:02:49;;;;;;;;;;;2.80;99.90;;;;;;12367583;28;20417;-84
2022/12/09 12:08:55;;;;;;;;;;;2.80;99.90;;;;;;12369000;28;19925;-84
2022/12/09 12:15:00;;;;;;;;;;;3.00;99.90;;;;;;12387109;28;20297;-84
2022/12/09 12:21:15;;;;;;;;;;;2.90;99.90;;;;;;12382290;28;19933;-84
2022/12/09 12:27:19;;;;;;;;;;;2.90;99.90;;;;;;12395526;28;20309;-84
2022/12/09 12:33:44;;;;;;;;;;;2.90;99.90;;;;;;12376111;28;19926;-84
2022/12/09 12:40:09;;;;;;;;;;;2.90;99.90;;;;;;12384085;28;19933;-84
2022/12/09 12:46:26;;;;;;;;;;;3.30;99.90;;;;;;12382685;28;19980;-84
2022/12/09 12:52:47;;;;;;;;;;;3.70;99.90;;;;;;12388807;28;19926;-84
2022/12/09 12:59:00;;;;;;;;;;;4.00;99.90;;;;;;12359555;28;19969;-84
2022/12/09 13:05:22;;;;;;;;;;;4.10;99.90;;;;;;12371806;28;19925;-84
2022/12/09 13:11:47;;;;;;;;;;;3.90;99.90;;;;;;12378837;28;19937;-84
2022/12/09 13:17:49;;;;;;;;;;;3.80;99.90;;;;;;12365067;28;19926;-84
2022/12/09 13:23:57;;;;;;;;;;;3.70;99.90;;;;;;12374833;28;19948;-84
2022/12/09 13:29:58;;;;;;;;;;;3.60;99.90;;;;;;12371054;28;19933;-84
2022/12/09 13:36:04;;;;;;;;;;;3.20;99.90;;;;;;12383428;28;19941;-84
2022/12/09 13:48:48;;;;;;;;;;;2.40;99.90;;;;;;12395915;28;19929;-84
2022/12/09 13:54:49;;;;;;;;;;;2.20;99.90;;;;;;12391668;28;19926;-84
2022/12/09 14:01:14;;;;;;;;;;;2.00;99.90;;;;;;12377167;28;19926;-84
2022/12/09 14:07:38;;;;;;;;;;;1.80;99.90;;;;;;12380858;28;19934;-84
2022/12/09 14:13:40;;;;;;;;;;;1.70;99.90;;;;;;12373348;28;20382;-84
2022/12/09 14:19:43;;;;;;;;;;;1.70;99.90;;;;;;12378463;28;20375;-84
2022/12/09 14:25:53;;;;;;;;;;;1.60;99.90;;;;;;12398397;28;19926;-84
2022/12/09 14:31:55;;;;;;;;;;;1.50;99.90;;;;;;12369186;28;19925;-84
2022/12/09 14:38:06;;;;;;;;;;;1.40;99.90;;;;;;12379597;28;19925;-84
2022/12/09 14:44:27;;;;;;;;;;;1.30;99.90;;;;;;12383441;28;19926;-84
2022/12/09 14:50:28;;;;;;;;;;;1.10;99.90;;;;;;12369034;28;19933;-84
2022/12/09 14:56:31;;;;;;;;;;;1.10;99.90;;;;;;12367181;28;20398;-84
2022/12/09 15:02:33;;;;;;;;;;;0.90;99.90;;;;;;12358165;28;20538;-84
2022/12/09 15:08:36;;;;;;;;;;;0.60;99.90;;;;;;12395385;28;19971;-84
2022/12/09 15:14:39;;;;;;;;;;;0.40;99.90;;;;;;12371312;28;19937;-84
2022/12/09 15:20:41;;;;;;;;;;;0.40;99.90;;;;;;12384625;28;19926;-84
2022/12/09 15:26:53;;;;;;;;;;;0.30;99.90;;;;;;12375536;28;19930;-84
2022/12/09 15:32:55;;;;;;;;;;;0.10;99.90;;;;;;12364346;28;19933;-84
2022/12/09 15:39:00;;;;;;;;;;;-0.10;99.90;;;;;;12378220;28;19925;-84
2022/12/09 15:45:23;;;;;;;;;;;-0.10;99.90;;;;;;12361179;28;19926;-84
2022/12/09 15:51:25;;;;;;;;;;;-0.30;99.90;;;;;;12367070;28;19976;-84
2022/12/09 15:57:27;;;;;;;;;;;-0.40;99.90;;;;;;12392382;28;20013;-83
2022/12/09 16:03:31;;;;;;;;;;;-0.40;99.90;;;;;;12399483;28;19933;-84
2022/12/09 16:09:33;;;;;;;;;;;-0.40;99.90;;;;;;12395784;28;19949;-84
2022/12/09 16:15:54;;;;;;;;;;;-0.50;99.90;;;;;;12382266;28;20298;-84
2022/12/09 16:22:02;;;;;;;;;;;-0.50;99.90;;;;;;12394237;28;19925;-84
2022/12/09 16:28:04;;;;;;;;;;;-0.60;99.90;;;;;;12379894;28;20331;-85
2022/12/09 16:34:18;;;;;;;;;;;-0.60;99.90;;;;;;12373677;28;19925;-85
2022/12/09 16:40:19;;;;;;;;;;;-0.70;99.90;;;;;;12406905;28;19926;-85
2022/12/09 16:46:27;;;;;;;;;;;-0.80;99.90;;;;;;12381648;28;19930;-84
2022/12/09 16:52:29;;;;;;;;;;;-0.90;99.90;;;;;;12381730;28;19933;-84
2022/12/09 16:58:31;;;;;;;;;;;-0.90;99.90;;;;;;12370773;28;20370;-84
2022/12/09 17:04:33;;;;;;;;;;;-0.90;99.90;;;;;;12371498;28;20517;-84
2022/12/09 17:10:35;;;;;;;;;;;-0.90;99.90;;;;;;12381063;28;19929;-84
2022/12/09 17:16:37;;;;;;;;;;;-1.00;99.90;;;;;;12392128;28;20322;-85
2022/12/09 17:22:38;;;;;;;;;;;-1.30;99.90;;;;;;12372040;28;19929;-85
2022/12/09 17:28:41;;;;;;;;;;;-1.20;99.90;;;;;;12365397;28;19925;-85
2022/12/09 17:34:42;;;;;;;;;;;-1.20;99.90;;;;;;12371851;28;19933;-85
2022/12/09 17:40:44;;;;;;;;;;;-1.10;99.90;;;;;;12371035;28;20180;-85
2022/12/09 17:46:47;;;;;;;;;;;-1.20;99.90;;;;;;12384624;28;20289;-85
2022/12/09 17:52:48;;;;;;;;;;;-1.10;99.90;;;;;;12373514;28;19926;-85
2022/12/09 17:58:54;;;;;;;;;;;-1.10;99.90;;;;;;12388289;28;19932;-85
2022/12/09 18:04:56;;;;;;;;;;;-1.10;99.90;;;;;;12365284;28;19933;-84
2022/12/09 18:11:01;;;;;;;;;;;-1.10;99.90;;;;;;12370221;28;19949;-85
2022/12/09 18:17:02;;;;;;;;;;;-1.20;99.90;;;;;;12393635;28;19932;-85
2022/12/09 18:23:04;;;;;;;;;;;-1.30;99.90;;;;;;12400367;28;21141;-85
2022/12/09 18:29:06;;;;;;;;;;;-1.30;99.90;;;;;;12370311;28;19926;-85
2022/12/09 18:35:08;;;;;;;;;;;-1.30;99.90;;;;;;12369309;28;19930;-85
2022/12/09 18:41:10;;;;;;;;;;;-1.40;99.90;;;;;;12373133;28;19926;-85
2022/12/09 18:47:12;;;;;;;;;;;-1.40;99.90;;;;;;12379139;28;20428;-85
2022/12/09 18:53:14;;;;;;;;;;;-1.60;99.90;;;;;;12374581;28;19929;-85
2022/12/09 18:59:16;;;;;;;;;;;-1.60;99.90;;;;;;12368357;28;19934;-85
2022/12/09 19:05:18;;;;;;;;;;;-1.40;99.90;;;;;;12368976;28;20370;-85
2022/12/09 19:11:20;;;;;;;;;;;-1.40;99.90;;;;;;12374233;28;19949;-85
2022/12/09 19:17:22;;;;;;;;;;;-1.40;99.90;;;;;;12392606;28;19926;-85
2022/12/09 19:23:24;;;;;;;;;;;-1.40;99.90;;;;;;12369345;28;20016;-85
2022/12/09 19:29:26;;;;;;;;;;;-1.50;99.90;;;;;;12376772;28;19930;-85
2022/12/09 19:35:28;;;;;;;;;;;-1.40;99.90;;;;;;12361218;28;19926;-85
2022/12/09 19:41:30;;;;;;;;;;;-1.40;99.90;;;;;;12392127;28;19933;-84
2022/12/09 19:47:32;;;;;;;;;;;-1.60;99.90;;;;;;12377001;28;19975;-84
2022/12/09 19:53:34;;;;;;;;;;;-1.50;99.90;;;;;;12397273;28;19936;-84
2022/12/09 19:59:36;;;;;;;;;;;-1.50;99.90;;;;;;12361582;28;19934;-84
2022/12/09 20:05:45;;;;;;;;;;;-1.50;99.90;;;;;;12370821;28;19933;-84
2022/12/09 20:11:47;;;;;;;;;;;-1.50;99.90;;;;;;12388138;28;19937;-84
2022/12/09 20:17:48;;;;;;;;;;;-1.30;99.90;;;;;;12379673;28;19930;-85
2022/12/09 20:23:51;;;;;;;;;;;-1.40;99.90;;;;;;12369453;28;19948;-84
2022/12/09 20:29:53;;;;;;;;;;;-1.30;99.90;;;;;;12386730;28;19926;-84
2022/12/09 20:35:54;;;;;;;;;;;-1.40;99.90;;;;;;12370950;28;19933;-84
2022/12/09 20:41:56;;;;;;;;;;;-1.50;99.90;;;;;;12383797;28;19948;-84
2022/12/09 20:47:58;;;;;;;;;;;-1.60;99.90;;;;;;12381575;28;19930;-84
2022/12/09 20:54:00;;;;;;;;;;;-1.70;99.90;;;;;;12379210;28;20301;-84
2022/12/09 21:00:01;;;;;;;;;;;-1.80;99.90;;;;;;12370235;28;19948;-84
2022/12/09 21:06:03;;;;;;;;;;;-1.80;99.90;;;;;;12374041;28;19941;-84
2022/12/09 21:12:05;;;;;;;;;;;-1.80;99.90;;;;;;12378864;28;19925;-84
2022/12/09 21:18:07;;;;;;;;;;;-1.80;99.90;;;;;;12382047;28;19930;-84
2022/12/09 21:24:10;;;;;;;;;;;-2.00;99.90;;;;;;12368597;28;19929;-84
2022/12/09 21:30:12;;;;;;;;;;;-1.90;99.90;;;;;;12385569;28;20009;-84
2022/12/09 21:36:15;;;;;;;;;;;-2.00;99.90;;;;;;12377704;28;19934;-84
2022/12/09 21:42:16;;;;;;;;;;;-2.00;99.90;;;;;;12398490;28;19930;-84
2022/12/09 21:48:18;;;;;;;;;;;-1.90;99.90;;;;;;12379948;28;19930;-84
2022/12/09 21:54:21;;;;;;;;;;;-1.90;99.90;;;;;;12281811;28;21336;-84
2022/12/09 22:00:23;;;;;;;;;;;-2.00;99.90;;;;;;12293748;28;19927;-84
2022/12/09 22:06:25;;;;;;;;;;;-2.00;99.90;;;;;;12293454;28;19933;-84
2022/12/09 22:12:27;;;;;;;;;;;-2.30;99.90;;;;;;12297358;28;20283;-84
2022/12/09 22:18:29;;;;;;;;;;;-2.30;99.90;;;;;;12286479;28;20283;-84
2022/12/09 22:24:30;;;;;;;;;;;-2.30;99.90;;;;;;12296868;28;19938;-84
2022/12/09 22:30:34;;;;;;;;;;;-2.10;99.90;;;;;;12282090;28;19927;-84
2022/12/09 22:36:36;;;;;;;;;;;-2.10;99.90;;;;;;12283075;28;19927;-84
2022/12/09 22:42:37;;;;;;;;;;;-1.90;99.90;;;;;;12288658;28;19930;-84
2022/12/09 22:48:40;;;;;;;;;;;-1.60;99.90;;;;;;12291672;28;19930;-85
2022/12/09 22:54:41;;;;;;;;;;;-1.70;99.90;;;;;;12368835;28;19930;-85
2022/12/09 23:00:43;;;;;;;;;;;-1.60;99.90;;;;;;12364078;28;19926;-85
2022/12/09 23:06:45;;;;;;;;;;;-1.50;99.90;;;;;;12377227;28;19932;-85
2022/12/09 23:12:46;;;;;;;;;;;-1.40;99.90;;;;;;12370424;28;19933;-85
2022/12/09 23:18:48;;;;;;;;;;;-1.30;99.90;;;;;;12373508;28;19926;-85
2022/12/09 23:24:50;;;;;;;;;;;-1.20;99.90;;;;;;12366121;28;19936;-85
2022/12/09 23:30:52;;;;;;;;;;;-1.20;99.90;;;;;;12366859;28;19940;-85
2022/12/09 23:36:54;;;;;;;;;;;-1.00;99.90;;;;;;12369844;28;19933;-85
2022/12/09 23:42:56;;;;;;;;;;;-0.90;99.90;;;;;;12375389;28;19930;-85
2022/12/09 23:48:58;;;;;;;;;;;-0.90;99.90;;;;;;12383441;28;19929;-85
2022/12/09 23:54:59;;;;;;;;;;;-1.10;99.90;;;;;;12356398;28;19930;-85
